Time;durP1;ratioP1;P1;durP2;ratioP2;P2;SDS_P1;SDS_P2;PMS_P1;PMS_P2;Temp;Humidity;BMP_temperature;BMP_pressure;BME280_temperature;BME280_humidity;BME280_pressure;Samples;Min_cycle;Max_cycle;Signal;HPM_P1;HPM_P2
2021/05/15 00:01:26;;;;;;;34.63;27.45;;;;;;;10.50;99.36;100186.91;4985399;28;21174;-82
2021/05/15 00:03:51;;;;;;;36.00;27.92;;;;;;;10.48;99.37;100187.13;4989445;28;20046;-80
2021/05/15 00:06:16;;;;;;;36.33;27.60;;;;;;;10.50;98.68;100184.25;4982335;28;20081;-80
2021/05/15 00:08:42;;;;;;;37.92;29.15;;;;;;;10.47;99.49;100189.97;4975464;28;20129;-82
2021/05/15 00:11:10;;;;;;;37.35;28.40;;;;;;;10.48;99.22;100188.97;4974437;28;20507;-79
2021/05/15 00:13:36;;;;;;;39.63;27.70;;;;;;;10.46;99.36;100189.13;4976614;28;20581;-81
2021/05/15 00:16:01;;;;;;;35.03;26.13;;;;;;;10.42;99.23;100187.84;4986151;28;20326;-79
2021/05/15 00:18:27;;;;;;;34.63;27.67;;;;;;;10.48;98.88;100186.28;4980686;28;20046;-79
2021/05/15 00:20:53;;;;;;;33.33;26.40;;;;;;;10.48;98.86;100187.13;4982506;28;20038;-82
2021/05/15 00:23:18;;;;;;;33.22;27.55;;;;;;;10.51;98.88;100183.25;4975141;28;20046;-81
2021/05/15 00:25:43;;;;;;;37.33;27.77;;;;;;;10.51;99.09;100186.75;4980685;28;20042;-83
2021/05/15 00:28:09;;;;;;;36.65;26.50;;;;;;;10.50;98.76;100192.28;4983215;28;20051;-81
2021/05/15 00:30:34;;;;;;;33.03;25.80;;;;;;;10.47;99.01;100190.81;4998121;28;20550;-77
2021/05/15 00:33:00;;;;;;;32.50;26.02;;;;;;;10.52;98.67;100183.06;4990227;28;20038;-82
2021/05/15 00:35:25;;;;;;;33.72;27.02;;;;;;;10.54;98.74;100183.72;5001428;28;20042;-79
2021/05/15 00:37:51;;;;;;;35.15;25.83;;;;;;;10.52;98.98;100188.41;4991630;28;20089;-80
2021/05/15 00:40:17;;;;;;;33.97;26.65;;;;;;;10.58;98.45;100193.06;4973496;28;20046;-81
2021/05/15 00:42:42;;;;;;;35.78;27.25;;;;;;;10.56;98.24;100181.69;4998670;28;20127;-80
2021/05/15 00:45:10;;;;;;;34.50;25.73;;;;;;;10.54;98.51;100188.25;4965370;28;20419;-78
2021/05/15 00:47:36;;;;;;;33.75;26.40;;;;;;;10.52;98.46;100188.41;4982016;28;20035;-79
2021/05/15 00:50:02;;;;;;;32.00;24.42;;;;;;;10.52;98.73;100193.78;4973528;28;20427;-79
2021/05/15 00:52:34;;;;;;;31.50;26.67;;;;;;;10.57;98.08;100196.78;4977679;28;20034;-81
2021/05/15 00:54:59;;;;;;;33.63;26.15;;;;;;;10.57;97.59;100196.78;4981556;28;20470;-80
2021/05/15 00:57:25;;;;;;;33.75;26.45;;;;;;;10.59;98.23;100193.94;4966657;28;20050;-81
2021/05/15 00:59:50;;;;;;;35.03;27.38;;;;;;;10.55;98.35;100187.22;4977877;28;20034;-80
2021/05/15 01:02:16;;;;;;;36.83;27.45;;;;;;;10.56;97.98;100188.91;4978302;28;20046;-80
2021/05/15 01:04:41;;;;;;;36.20;28.25;;;;;;;10.54;97.74;100191.75;4981541;28;20121;-78
2021/05/15 01:07:09;;;;;;;36.42;28.88;;;;;;;10.51;97.89;100186.75;4981772;28;20061;-80
2021/05/15 01:09:34;;;;;;;38.05;29.33;;;;;;;10.53;98.61;100184.75;4979160;28;20137;-82
2021/05/15 01:12:08;;;;;;;37.17;28.77;;;;;;;10.56;98.90;100188.91;4980863;28;20129;-78
2021/05/15 01:14:36;;;;;;;38.17;27.23;;;;;;;10.51;99.19;100188.63;4967582;28;20069;-80
2021/05/15 01:17:02;;;;;;;35.25;27.63;;;;;;;10.54;98.66;100186.41;4973405;28;20057;-80
2021/05/15 01:19:27;;;;;;;34.28;28.90;;;;;;;10.63;97.66;100184.50;4966709;28;20049;-81
2021/05/15 01:21:53;;;;;;;34.42;28.45;;;;;;;10.60;98.64;100185.69;4981839;28;20041;-78
2021/05/15 01:24:19;;;;;;;36.13;28.15;;;;;;;10.58;98.49;100181.50;4986700;28;20046;-80
2021/05/15 01:26:44;;;;;;;33.78;28.00;;;;;;;10.67;97.63;100190.31;4979487;28;20054;-78
2021/05/15 01:29:10;;;;;;;38.15;27.17;;;;;;;10.63;98.54;100187.16;4978429;28;20136;-79
2021/05/15 01:31:38;;;;;;;33.22;28.02;;;;;;;10.57;99.54;100186.03;4979725;28;20079;-79
2021/05/15 01:34:04;;;;;;;33.78;27.23;;;;;;;10.61;98.96;100186.50;4997237;28;20038;-81
2021/05/15 01:36:35;;;;;;;36.00;28.02;;;;;;;10.67;98.81;100184.97;4989532;28;20046;-80
2021/05/15 01:39:01;;;;;;;33.45;27.95;;;;;;;10.68;98.78;100178.59;4977266;28;20053;-79
2021/05/15 01:41:27;;;;;;;32.65;26.40;;;;;;;10.67;98.43;100174.22;4954912;28;20438;-78
2021/05/15 01:43:57;;;;;;;36.40;27.30;;;;;;;10.68;98.88;100175.91;4981323;28;20042;-79
2021/05/15 01:46:23;;;;;;;31.85;27.30;;;;;;;10.77;97.69;100154.19;4986280;28;20120;-79
2021/05/15 01:48:48;;;;;;;32.05;27.50;;;;;;;10.74;97.87;100154.56;4984252;28;20042;-77
2021/05/15 01:51:13;;;;;;;34.80;28.08;;;;;;;10.76;98.25;100151.66;4984194;28;20395;-80
2021/05/15 01:53:48;;;;;;;32.83;26.92;;;;;;;10.69;98.77;100143.50;4995938;28;20049;-78
2021/05/15 01:56:15;;;;;;;35.58;28.30;;;;;;;10.69;98.90;100146.19;4983675;28;20049;-82
2021/05/15 01:58:41;;;;;;;35.40;28.27;;;;;;;10.73;98.57;100141.28;4971557;28;20111;-78
2021/05/15 02:01:08;;;;;;;34.55;29.40;;;;;;;10.77;97.73;100131.88;4986880;28;20121;-78
2021/05/15 02:03:35;;;;;;;33.65;27.17;;;;;;;10.72;98.68;100139.63;4988865;28;20038;-78
2021/05/15 02:06:00;;;;;;;34.67;28.92;;;;;;;10.74;98.46;100140.31;4989814;28;20038;-77
2021/05/15 02:08:26;;;;;;;33.47;27.63;;;;;;;10.75;98.43;100131.22;4987349;28;20034;-79
2021/05/15 02:10:52;;;;;;;32.25;25.52;;;;;;;10.73;98.48;100133.25;4999889;28;20046;-79
2021/05/15 02:13:19;;;;;;;36.70;29.98;;;;;;;10.77;97.99;100129.19;4977959;28;20066;-80
2021/05/15 02:15:46;;;;;;;33.95;28.52;;;;;;;10.79;97.60;100130.69;4977987;28;20046;-79
2021/05/15 02:18:12;;;;;;;34.88;28.98;;;;;;;10.76;98.21;100125.69;4983049;28;20446;-79
2021/05/15 02:20:37;;;;;;;36.17;28.90;;;;;;;10.73;98.63;100125.19;4976171;28;20073;-80
2021/05/15 02:23:03;;;;;;;35.80;27.23;;;;;;;10.69;98.70;100123.91;4980206;28;20134;-80
2021/05/15 02:25:29;;;;;;;33.88;26.98;;;;;;;10.56;100.00;100119.16;4970496;28;20030;-80
2021/05/15 02:27:54;;;;;;;33.80;25.45;;;;;;;10.60;99.42;100121.28;4984621;28;20042;-81
2021/05/15 02:30:22;;;;;;;33.08;27.42;;;;;;;10.68;98.68;100122.25;4985228;28;20057;-80
2021/05/15 02:32:47;;;;;;;34.60;28.20;;;;;;;10.64;99.22;100119.06;4980739;28;20120;-79
2021/05/15 02:35:14;;;;;;;36.75;27.50;;;;;;;10.65;98.88;100114.56;4980404;28;20073;-78
2021/05/15 02:37:39;;;;;;;31.60;27.58;;;;;;;10.63;98.84;100117.41;4978953;28;20042;-79
2021/05/15 02:40:07;;;;;;;32.70;26.88;;;;;;;10.64;99.08;100118.25;4972563;28;20519;-81
2021/05/15 02:42:32;;;;;;;32.33;26.85;;;;;;;10.63;98.57;100112.03;4980997;28;20077;-80
2021/05/15 02:44:58;;;;;;;30.33;24.70;;;;;;;10.58;99.51;100114.44;4985556;28;20129;-81
2021/05/15 02:47:23;;;;;;;32.38;26.00;;;;;;;10.56;99.33;100106.56;4978893;28;20586;-82
2021/05/15 02:49:49;;;;;;;30.30;24.65;;;;;;;10.53;99.29;100101.56;4982925;28;20066;-81
2021/05/15 02:52:15;;;;;;;31.58;25.13;;;;;;;10.51;99.24;100103.59;4983541;28;20193;-80
2021/05/15 02:54:41;;;;;;;29.15;24.30;;;;;;;10.47;99.32;100096.94;4975527;28;20043;-80
2021/05/15 02:57:07;;;;;;;29.50;24.20;;;;;;;10.51;98.78;100100.09;4980714;28;20046;-81
2021/05/15 02:59:33;;;;;;;30.73;25.15;;;;;;;10.49;98.48;100094.88;4976136;28;20432;-81
2021/05/15 03:01:59;;;;;;;29.90;24.63;;;;;;;10.43;99.08;100097.47;4995815;28;20102;-78
2021/05/15 03:04:24;;;;;;;29.13;24.92;;;;;;;10.44;98.48;100097.28;4983310;28;20046;-80
2021/05/15 03:06:50;;;;;;;31.08;25.00;;;;;;;10.39;98.72;100095.16;4983517;28;20056;-80
2021/05/15 03:09:15;;;;;;;29.80;23.23;;;;;;;10.27;100.00;100101.09;4970812;28;20050;-80
2021/05/15 03:11:41;;;;;;;28.10;23.38;;;;;;;10.37;98.69;100099.84;4980576;28;20480;-79
2021/05/15 03:14:06;;;;;;;29.65;22.85;;;;;;;10.33;99.50;100103.09;4978640;28;20133;-80
2021/05/15 03:16:32;;;;;;;28.20;23.08;;;;;;;10.30;99.75;100103.41;4980216;28;20078;-80
2021/05/15 03:18:57;;;;;;;29.45;23.52;;;;;;;10.33;99.87;100097.72;4989590;28;20042;-79
2021/05/15 03:21:23;;;;;;;26.45;23.42;;;;;;;10.28;99.80;100098.25;4991984;28;20042;-78
2021/05/15 03:23:48;;;;;;;25.85;21.77;;;;;;;10.28;99.52;100094.75;4972713;28;20063;-79
2021/05/15 03:26:14;;;;;;;25.30;22.10;;;;;;;10.26;99.90;100083.31;4976246;28;20054;-79
2021/05/15 03:28:40;;;;;;;25.67;22.70;;;;;;;10.26;99.21;100088.69;4980609;28;20059;-80
2021/05/15 03:31:05;;;;;;;27.92;22.35;;;;;;;10.27;99.46;100077.81;5002736;28;20094;-81
2021/05/15 03:33:30;;;;;;;28.77;22.42;;;;;;;10.24;99.69;100080.81;4986179;28;20488;-79
2021/05/15 03:35:56;;;;;;;25.40;22.65;;;;;;;10.22;99.41;100074.81;5001997;28;20440;-81
2021/05/15 03:38:21;;;;;;;27.52;22.08;;;;;;;10.22;99.59;100073.97;4975599;28;20129;-78
2021/05/15 03:40:47;;;;;;;28.77;24.42;;;;;;;10.30;98.99;100077.47;4991304;28;20038;-80
2021/05/15 03:43:12;;;;;;;26.10;22.38;;;;;;;10.22;99.77;100079.34;4990610;28;20494;-80
2021/05/15 03:45:38;;;;;;;28.23;23.67;;;;;;;10.22;99.87;100068.63;4985341;28;20395;-79
2021/05/15 03:48:04;;;;;;;27.40;22.55;;;;;;;10.20;100.00;100082.19;4978339;28;20149;-81
2021/05/15 03:50:29;;;;;;;28.27;22.55;;;;;;;10.15;100.00;100079.19;4986935;28;20071;-77
2021/05/15 03:52:54;;;;;;;26.33;22.67;;;;;;;10.16;99.61;100076.34;4998755;28;20339;-80
2021/05/15 03:55:20;;;;;;;25.98;22.75;;;;;;;10.19;99.22;100074.34;4964572;28;20153;-80
2021/05/15 03:57:45;;;;;;;29.15;21.90;;;;;;;10.12;99.93;100074.19;4988562;28;20038;-80
2021/05/15 04:00:11;;;;;;;26.27;23.20;;;;;;;10.17;99.40;100077.19;4992763;28;20046;-81
2021/05/15 04:02:37;;;;;;;28.83;24.95;;;;;;;10.17;98.30;100075.31;4977665;28;20042;-80
2021/05/15 04:05:05;;;;;;;27.50;22.75;;;;;;;10.16;99.22;100072.84;4981668;28;20039;-79
2021/05/15 04:07:30;;;;;;;23.98;21.13;;;;;;;10.12;99.95;100076.88;4976636;28;20487;-80
2021/05/15 04:09:55;;;;;;;25.05;22.13;;;;;;;10.16;99.57;100072.84;4982150;28;20082;-81
2021/05/15 04:12:23;;;;;;;24.20;21.65;;;;;;;10.09;99.65;100079.91;4986093;28;20050;-80
2021/05/15 04:15:06;;;;;;;27.30;22.80;;;;;;;10.18;98.68;100070.78;4967985;28;20376;-78
2021/05/15 04:17:32;;;;;;;26.95;23.52;;;;;;;10.13;99.74;100068.66;4989997;28;20584;-79
2021/05/15 04:19:58;;;;;;;26.98;24.00;;;;;;;10.19;99.06;100068.97;4989516;28;20037;-79
2021/05/15 04:22:24;;;;;;;27.15;23.35;;;;;;;10.20;98.81;100070.63;4985426;28;20475;-78
2021/05/15 04:24:50;;;;;;;25.60;22.90;;;;;;;10.17;99.16;100072.66;4986525;28;20045;-80
2021/05/15 04:27:16;;;;;;;24.35;20.83;;;;;;;10.19;98.92;100061.75;4980337;28;20042;-79
2021/05/15 04:29:44;;;;;;;23.85;19.80;;;;;;;10.13;99.68;100060.63;4985535;28;20113;-81
2021/05/15 04:32:09;;;;;;;25.42;21.35;;;;;;;10.08;99.71;100068.38;4974009;28;20319;-79
2021/05/15 04:34:35;;;;;;;28.17;21.50;;;;;;;10.14;99.73;100062.28;4991967;28;20491;-80
2021/05/15 04:37:00;;;;;;;24.52;20.92;;;;;;;10.08;99.58;100065.69;4971005;28;20515;-79
2021/05/15 04:39:29;;;;;;;24.30;20.65;;;;;;;10.09;99.66;100063.84;4979741;28;20117;-79
2021/05/15 04:41:57;;;;;;;27.73;21.50;;;;;;;10.13;99.42;100060.63;4978068;28;20065;-77
2021/05/15 04:44:23;;;;;;;25.80;21.10;;;;;;;10.12;98.95;100069.66;4985841;28;20054;-80
2021/05/15 04:46:49;;;;;;;24.25;20.67;;;;;;;10.13;98.96;100066.00;4983216;28;20040;-79
2021/05/15 04:49:15;;;;;;;25.20;20.25;;;;;;;10.17;98.86;100069.97;4986163;28;20197;-79
2021/05/15 04:51:41;;;;;;;23.38;20.77;;;;;;;10.23;97.74;100064.91;4978920;28;20047;-80
2021/05/15 04:54:07;;;;;;;22.88;19.85;;;;;;;10.25;97.51;100068.25;4977826;28;20193;-81
2021/05/15 04:56:32;;;;;;;22.88;19.52;;;;;;;10.23;96.90;100063.06;4987493;28;20053;-79
2021/05/15 04:58:58;;;;;;;22.45;18.38;;;;;;;10.23;97.43;100060.38;4981665;28;20053;-79
2021/05/15 05:01:23;;;;;;;22.48;20.10;;;;;;;10.33;95.98;100061.00;4980494;28;20053;-80
2021/05/15 05:03:49;;;;;;;23.77;20.88;;;;;;;10.27;97.95;100066.22;4986747;28;20504;-81
2021/05/15 05:06:14;;;;;;;22.15;18.58;;;;;;;10.23;97.90;100064.91;4995923;28;20053;-80
2021/05/15 05:08:40;;;;;;;21.35;18.98;;;;;;;10.23;97.72;100064.91;4988488;28;20049;-78
2021/05/15 05:11:05;;;;;;;21.17;18.90;;;;;;;10.27;97.55;100066.22;4984645;28;20491;-80
2021/05/15 05:13:30;;;;;;;20.95;18.52;;;;;;;10.25;97.84;100068.25;4983051;28;20042;-81
2021/05/15 05:15:56;;;;;;;21.88;19.60;;;;;;;10.29;97.26;100069.56;4967461;28;20038;-79
2021/05/15 05:18:23;;;;;;;23.17;20.42;;;;;;;10.34;97.27;100075.25;4980988;28;20503;-81
2021/05/15 05:20:48;;;;;;;24.35;19.98;;;;;;;10.33;97.36;100062.84;4985397;28;20074;-79
2021/05/15 05:23:14;;;;;;;23.55;19.38;;;;;;;10.34;97.09;100064.50;4996618;28;20178;-79
2021/05/15 05:25:39;;;;;;;21.75;19.45;;;;;;;10.38;96.63;100066.63;4991109;28;20082;-80
2021/05/15 05:28:05;;;;;;;21.10;18.80;;;;;;;10.39;96.64;100059.44;4982310;28;20050;-78
2021/05/15 05:30:32;;;;;;;23.75;19.42;;;;;;;10.34;97.33;100061.84;4983176;28;20154;-82
2021/05/15 05:32:57;;;;;;;21.02;18.75;;;;;;;10.44;96.39;100059.72;4968157;28;21078;-79
2021/05/15 05:35:23;;;;;;;20.88;18.70;;;;;;;10.35;96.72;100060.81;4986719;28;20145;-78
2021/05/15 05:37:48;;;;;;;20.90;17.38;;;;;;;10.35;97.12;100058.13;4977769;28;20031;-78
2021/05/15 05:40:15;;;;;;;20.75;18.55;;;;;;;10.39;96.37;100054.91;4962285;28;20038;-79
2021/05/15 05:42:42;;;;;;;19.80;17.38;;;;;;;10.35;96.93;100058.13;4974629;28;20042;-78
2021/05/15 05:45:10;;;;;;;21.95;17.75;;;;;;;10.36;97.04;100059.81;4984961;28;20035;-80
2021/05/15 05:47:36;;;;;;;21.80;17.42;;;;;;;10.37;97.22;100056.09;4983579;28;20045;-79
2021/05/15 05:50:02;;;;;;;17.10;15.23;;;;;;;10.33;97.70;100065.53;4986472;28;20042;-78
2021/05/15 05:52:27;;;;;;;19.10;17.02;;;;;;;10.36;97.09;100063.31;4967941;28;20039;-80
2021/05/15 05:54:53;;;;;;;19.95;17.08;;;;;;;10.42;96.74;100060.94;4979909;28;20081;-78
2021/05/15 05:57:18;;;;;;;18.70;16.70;;;;;;;10.35;97.97;100066.16;4979347;28;20561;-78
2021/05/15 05:59:43;;;;;;;18.58;16.58;;;;;;;10.38;97.42;100058.59;4992692;28;20405;-79
2021/05/15 06:02:11;;;;;;;20.40;16.85;;;;;;;10.37;97.38;100062.28;4981076;28;20548;-78
2021/05/15 06:04:36;;;;;;;19.55;15.93;;;;;;;10.33;98.18;100062.84;4987000;28;20049;-81
2021/05/15 06:07:02;;;;;;;18.00;15.38;;;;;;;10.35;98.08;100053.59;4989863;28;20125;-80
2021/05/15 06:09:27;;;;;;;18.52;15.52;;;;;;;10.36;98.44;100066.00;4972483;28;20076;-78
2021/05/15 06:11:52;;;;;;;17.67;15.77;;;;;;;10.40;97.63;100058.44;4967576;28;20038;-79
2021/05/15 06:14:18;;;;;;;18.90;16.88;;;;;;;10.45;96.69;100063.25;4952688;28;20073;-80
2021/05/15 06:16:43;;;;;;;19.52;15.93;;;;;;;10.39;97.25;100062.13;4975924;28;20531;-80
2021/05/15 06:19:09;;;;;;;20.02;17.08;;;;;;;10.40;97.31;100053.06;4983761;28;20050;-79
2021/05/15 06:21:34;;;;;;;19.70;17.38;;;;;;;10.41;97.60;100065.44;4978029;28;20050;-78
2021/05/15 06:24:00;;;;;;;21.15;16.60;;;;;;;10.46;97.14;100065.75;4955662;28;20045;-77
2021/05/15 06:26:25;;;;;;;17.65;15.35;;;;;;;10.39;97.92;100071.00;4985492;28;20426;-80
2021/05/15 06:28:51;;;;;;;16.50;13.98;;;;;;;10.37;97.88;100056.94;4982354;28;20105;-80
2021/05/15 06:31:16;;;;;;;17.73;14.38;;;;;;;10.34;98.41;100056.47;4987548;28;20042;-79
2021/05/15 06:33:42;;;;;;;18.58;15.32;;;;;;;10.28;99.67;100055.34;4983310;28;20039;-80
2021/05/15 06:36:10;;;;;;;21.88;17.30;;;;;;;10.36;99.79;100057.13;4986450;28;20038;-81
2021/05/15 06:38:36;;;;;;;;;;;;;;;10.35;100.00;100058.13;4977424;28;20085;-80
2021/05/15 06:41:02;;;;;;;22.67;18.05;;;;;;;10.27;100.00;100060.88;4963343;28;19914;-81
2021/05/15 06:43:27;;;;;;;26.98;22.92;;;;;;;10.31;100.00;100059.50;4987488;28;20050;-80
2021/05/15 06:45:55;;;;;;;34.33;25.67;;;;;;;10.28;100.00;100055.34;4987306;28;20052;-81
2021/05/15 06:48:20;;;;;;;39.13;28.25;;;;;;;10.33;100.00;100054.81;4989167;28;20050;-80
2021/05/15 06:50:45;;;;;;;43.92;32.38;;;;;;;10.39;100.00;100062.13;4991559;28;20093;-79
2021/05/15 06:53:11;;;;;;;46.33;33.80;;;;;;;10.37;100.00;100072.19;4984242;28;20517;-80
2021/05/15 06:55:36;;;;;;;47.22;31.70;;;;;;;10.36;100.00;100059.81;4997579;28;20073;-79
2021/05/15 06:58:05;;;;;;;45.80;33.63;;;;;;;10.38;100.00;100068.50;4957744;28;20723;-79
2021/05/15 07:00:31;;;;;;;46.78;34.42;;;;;;;10.33;100.00;100060.19;4985770;28;20062;-79
2021/05/15 07:02:56;;;;;;;52.67;34.78;;;;;;;10.35;100.00;100067.00;4985824;28;20038;-79
2021/05/15 07:05:22;;;;;;;45.75;34.72;;;;;;;10.34;100.00;100057.28;4998266;28;20046;-80
2021/05/15 07:07:47;;;;;;;42.67;33.03;;;;;;;10.32;100.00;100058.50;4980678;28;20105;-78
2021/05/15 07:10:13;;;;;;;45.50;36.17;;;;;;;10.36;100.00;100057.13;4983097;28;20062;-78
2021/05/15 07:12:39;;;;;;;48.08;38.25;;;;;;;10.38;100.00;100065.81;4992805;28;20041;-80
2021/05/15 07:15:06;;;;;;;43.33;33.13;;;;;;;10.34;100.00;100061.84;4983563;28;20380;-80
2021/05/15 07:17:32;;;;;;;43.90;35.13;;;;;;;10.41;100.00;100052.03;4984214;28;20050;-78
2021/05/15 07:20:01;;;;;;;43.55;33.70;;;;;;;10.40;100.00;100053.06;4973143;28;20039;-80
2021/05/15 07:22:27;;;;;;;42.50;34.72;;;;;;;10.41;100.00;100054.72;4979344;28;20045;-79
2021/05/15 07:24:54;;;;;;;44.40;35.85;;;;;;;10.48;100.00;100046.78;4977263;28;20039;-79
2021/05/15 07:27:20;;;;;;;42.92;35.15;;;;;;;10.51;100.00;100046.44;4975568;28;20050;-81
2021/05/15 07:29:46;;;;;;;44.40;37.33;;;;;;;10.64;100.00;100045.78;4986810;28;20070;-79
2021/05/15 07:32:12;;;;;;;41.38;32.35;;;;;;;10.69;100.00;100043.41;4983883;28;20096;-80
2021/05/15 07:34:37;;;;;;;38.58;31.10;;;;;;;10.75;100.00;100039.97;4983095;28;20050;-79
2021/05/15 07:37:03;;;;;;;38.92;31.25;;;;;;;10.88;100.00;100034.81;4979905;28;20042;-78
2021/05/15 07:39:29;;;;;;;32.30;28.35;;;;;;;10.99;100.00;100033.50;4966019;28;20053;-81
2021/05/15 07:41:54;;;;;;;31.17;26.98;;;;;;;11.05;98.93;100030.94;4984137;28;20042;-80
2021/05/15 07:44:21;;;;;;;33.60;27.33;;;;;;;11.15;97.84;100029.81;4976772;28;20471;-80
2021/05/15 07:46:47;;;;;;;32.33;25.83;;;;;;;11.36;98.44;100026.34;4980959;28;20039;-80
2021/05/15 07:49:13;;;;;;;35.33;28.38;;;;;;;11.45;97.71;100028.75;4985280;28;20121;-80
2021/05/15 07:51:38;;;;;;;30.55;23.77;;;;;;;11.42;95.96;100029.13;4962969;28;20134;-79
2021/05/15 07:54:04;;;;;;;29.30;23.55;;;;;;;11.37;95.82;100028.03;4985340;28;20056;-81
2021/05/15 07:56:30;;;;;;;31.67;26.88;;;;;;;11.38;95.87;100027.81;4996302;28;20054;-79
2021/05/15 07:58:55;;;;;;;35.13;27.08;;;;;;;11.48;95.64;100023.00;5001823;28;20341;-81
2021/05/15 08:01:21;;;;;;;32.60;26.95;;;;;;;11.64;94.67;100021.09;4979570;28;20051;-80
2021/05/15 08:03:47;;;;;;;34.53;27.25;;;;;;;11.76;94.28;100019.56;4975204;28;20046;-81
2021/05/15 08:06:12;;;;;;;35.15;27.80;;;;;;;11.91;94.74;100031.16;4958514;28;20122;-79
2021/05/15 08:08:38;;;;;;;30.38;23.95;;;;;;;11.87;92.22;100023.66;4978836;28;20046;-80
2021/05/15 08:11:04;;;;;;;35.25;26.05;;;;;;;11.71;91.53;100022.03;4969800;28;20376;-79
2021/05/15 08:13:30;;;;;;;32.85;27.48;;;;;;;11.67;92.27;100021.53;4981326;28;20050;-80
2021/05/15 08:15:56;;;;;;;38.05;26.80;;;;;;;11.61;93.48;100025.00;4983303;28;20074;-79
2021/05/15 08:18:21;;;;;;;42.38;31.15;;;;;;;11.52;93.20;100026.97;4987008;28;20038;-80
2021/05/15 08:20:47;;;;;;;39.20;32.15;;;;;;;11.51;93.37;100024.47;4992175;28;20460;-81
2021/05/15 08:23:13;;;;;;;37.53;28.02;;;;;;;11.38;93.34;100025.13;4990092;28;20054;-79
2021/05/15 08:25:39;;;;;;;41.05;28.73;;;;;;;11.32;94.17;100025.06;4969154;28;20432;-81
2021/05/15 08:28:12;;;;;;;39.00;31.38;;;;;;;11.25;94.45;100022.31;4981130;28;20053;-79
2021/05/15 08:30:39;;;;;;;41.33;31.70;;;;;;;11.33;94.50;100018.66;4980759;28;20052;-80
2021/05/15 08:33:06;;;;;;;41.08;29.15;;;;;;;11.35;93.70;100019.31;4981039;28;20050;-80
2021/05/15 08:35:32;;;;;;;38.88;29.45;;;;;;;11.41;94.03;100022.06;4979948;28;20037;-79
2021/05/15 08:37:58;;;;;;;38.63;29.40;;;;;;;11.40;93.23;100027.66;4970544;28;20336;-80
2021/05/15 08:40:25;;;;;;;40.10;30.35;;;;;;;11.44;94.29;100012.81;4981294;28;20125;-79
2021/05/15 08:42:53;;;;;;;46.28;32.30;;;;;;;11.41;94.48;100027.44;4980734;28;20049;-80
2021/05/15 08:45:19;;;;;;;49.13;36.53;;;;;;;11.35;96.43;100016.63;4979293;28;20052;-80
2021/05/15 08:47:45;;;;;;;58.00;39.25;;;;;;;11.25;95.37;100025.00;4984810;28;20042;-81
2021/05/15 08:50:15;;;;;;;58.80;39.00;;;;;;;11.19;95.68;100025.72;4985063;28;20050;-81
2021/05/15 08:52:43;;;;;;;64.50;43.08;;;;;;;11.22;96.55;100030.72;4999068;28;20284;-81
2021/05/15 08:55:12;;;;;;;66.45;43.22;;;;;;;11.26;96.32;100018.59;4982319;28;20085;-79
2021/05/15 08:57:38;;;;;;;58.58;40.53;;;;;;;11.15;96.41;100021.75;4969009;28;20062;-81
2021/05/15 09:00:10;;;;;;;61.63;42.72;;;;;;;11.26;95.39;100021.28;4974373;28;20073;-81
2021/05/15 09:02:35;;;;;;;59.08;40.72;;;;;;;11.27;96.11;100017.56;4988015;28;20130;-81
2021/05/15 09:05:01;;;;;;;57.63;38.33;;;;;;;11.39;95.71;100013.38;4986083;28;20113;-81
2021/05/15 09:07:26;;;;;;;55.08;39.10;;;;;;;11.54;93.40;100005.28;4977499;28;20085;-80
2021/05/15 09:09:52;;;;;;;54.88;36.92;;;;;;;11.62;92.38;100025.81;4980550;28;20034;-80
2021/05/15 09:12:17;;;;;;;53.28;37.78;;;;;;;11.64;91.58;100021.09;4978256;28;20065;-80
2021/05/15 09:14:42;;;;;;;54.45;38.13;;;;;;;11.68;91.44;100012.47;4990175;28;20038;-82
2021/05/15 09:17:08;;;;;;;53.10;36.10;;;;;;;11.85;90.98;100007.69;4977225;28;20059;-80
2021/05/15 09:19:33;;;;;;;55.67;38.20;;;;;;;11.85;90.76;100015.75;4999190;28;20479;-80
2021/05/15 09:22:04;;;;;;;54.60;38.40;;;;;;;11.83;88.66;100009.72;4983860;28;20042;-81
2021/05/15 09:24:40;;;;;;;52.05;37.88;;;;;;;11.82;89.03;100017.97;4997042;28;20038;-79
2021/05/15 09:27:07;;;;;;;52.42;37.10;;;;;;;11.94;88.88;100005.75;4976336;28;20035;-80
2021/05/15 09:29:44;;;;;;;51.63;37.95;;;;;;;12.06;88.52;99998.00;4976319;28;20134;-82
2021/05/15 09:32:10;;;;;;;52.85;36.83;;;;;;;12.18;86.81;99996.44;4976568;28;20049;-79
2021/05/15 09:34:46;;;;;;;50.25;33.55;;;;;;;12.17;85.91;99987.53;4984875;28;20419;-81
2021/05/15 09:37:12;;;;;;;46.05;31.60;;;;;;;12.21;82.67;99990.66;4988372;28;20129;-80
2021/05/15 09:39:47;;;;;;;44.45;31.80;;;;;;;12.20;83.28;99989.00;4988934;28;20133;-81
2021/05/15 09:42:15;;;;;;;46.75;34.47;;;;;;;12.22;83.06;99992.31;4967263;28;20550;-78
2021/05/15 09:44:40;;;;;;;47.72;34.05;;;;;;;12.25;84.42;99975.78;4983425;28;20363;-79
2021/05/15 09:47:06;;;;;;;48.95;32.60;;;;;;;12.30;81.95;99984.09;4991160;28;20042;-80
2021/05/15 09:49:33;;;;;;;43.72;29.20;;;;;;;12.22;81.83;99975.34;4983195;28;20439;-80
2021/05/15 09:52:01;;;;;;;43.75;32.05;;;;;;;12.46;83.45;99982.16;4996435;28;20049;-80
2021/05/15 09:54:32;;;;;;;45.97;32.60;;;;;;;12.51;81.73;99974.31;4982380;28;20502;-82
2021/05/15 09:57:06;;;;;;;43.00;28.27;;;;;;;12.49;80.72;99974.53;4981394;28;20120;-80
2021/05/15 09:59:34;;;;;;;46.15;32.15;;;;;;;12.50;80.37;99978.06;4975774;28;20046;-83
2021/05/15 10:02:02;;;;;;;44.35;31.08;;;;;;;12.63;80.76;99972.78;4974837;28;20039;-80
2021/05/15 10:04:28;;;;;;;46.67;31.33;;;;;;;12.69;80.74;99969.28;4981288;28;20051;-82
2021/05/15 10:06:56;;;;;;;44.30;31.20;;;;;;;12.75;80.13;99963.09;4983551;28;20046;-80
2021/05/15 10:09:33;;;;;;;38.63;28.50;;;;;;;12.63;79.20;99959.31;4997299;28;20049;-80
2021/05/15 10:12:00;;;;;;;41.65;30.52;;;;;;;12.77;80.16;99962.88;4972784;28;20078;-81
2021/05/15 10:14:26;;;;;;;41.03;27.52;;;;;;;12.79;79.18;99960.84;4984455;28;20045;-82
2021/05/15 10:16:52;;;;;;;43.65;28.60;;;;;;;12.76;78.26;99955.84;4980717;28;20499;-83
2021/05/15 10:19:17;;;;;;;44.58;29.83;;;;;;;12.78;78.18;99954.63;4995293;28;20239;-80
2021/05/15 10:21:43;;;;;;;45.95;30.88;;;;;;;13.07;79.31;99950.81;4986678;28;20654;-81
2021/05/15 10:24:24;;;;;;;44.97;30.45;;;;;;;13.23;76.94;99952.31;4973947;28;20101;-79
2021/05/15 10:27:07;;;;;;;41.50;30.38;;;;;;;13.14;75.30;99939.25;4977795;28;20050;-82
2021/05/15 10:29:51;;;;;;;44.15;31.23;;;;;;;13.22;77.10;99933.69;4954890;28;20082;-82
2021/05/15 10:32:22;;;;;;;41.97;30.27;;;;;;;13.13;74.78;99927.63;4977345;28;20039;-81
2021/05/15 10:34:58;;;;;;;40.05;28.88;;;;;;;13.24;75.96;99927.06;4994126;28;20045;-79
2021/05/15 10:37:24;;;;;;;40.60;26.75;;;;;;;13.34;74.34;99933.94;4970796;28;20039;-83
2021/05/15 10:39:50;;;;;;;37.05;27.58;;;;;;;13.37;73.49;99925.47;4985847;28;20038;-81
2021/05/15 10:42:33;;;;;;;40.05;28.50;;;;;;;13.34;72.78;99920.47;4979243;28;20082;-83
2021/05/15 10:45:00;;;;;;;40.92;28.33;;;;;;;13.35;74.26;99922.13;4989416;28;20038;-80
2021/05/15 10:47:26;;;;;;;40.03;29.33;;;;;;;13.31;73.96;99913.63;4993182;28;20065;-81
2021/05/15 10:50:11;;;;;;;36.00;26.13;;;;;;;13.22;72.44;99917.50;4982849;28;20062;-82
2021/05/15 10:52:48;;;;;;;39.83;26.85;;;;;;;13.09;73.81;99918.31;4984336;28;20039;-81
2021/05/15 10:55:18;;;;;;;35.00;24.05;;;;;;;13.03;73.71;99909.19;4983735;28;20038;-83
2021/05/15 10:57:43;;;;;;;37.17;25.90;;;;;;;13.02;74.14;99906.66;4983705;28;20045;-81
2021/05/15 11:00:09;;;;;;;36.97;25.73;;;;;;;13.14;73.92;99904.22;4957431;28;20038;-80
2021/05/15 11:02:40;;;;;;;38.65;28.35;;;;;;;13.16;75.38;99913.75;4980285;28;20050;-82
2021/05/15 11:05:14;;;;;;;38.45;26.00;;;;;;;13.15;73.71;99914.81;4985578;28;20435;-81
2021/05/15 11:07:40;;;;;;;36.58;26.42;;;;;;;13.15;73.98;99906.72;4981013;28;20371;-82